Time,TemperatureF,DewpointF,PressureIn,WindDirection,WindDirectionDegrees,WindSpeedMPH,WindSpeedGustMPH,Humidity,HourlyPrecipIn,Conditions,Clouds,dailyrainin,SoftwareType,DateUTC
2013-04-07 00:00:00,25.8,13.7,0.00,SE,144,1.2,-999.0,59,0.00,,,-99.99,,2013-04-07 08:00:00,
2013-04-07 00:05:00,24.9,13.9,0.00,South,181,1.4,-999.0,62,0.00,,,-99.99,,2013-04-07 08:05:00,
2013-04-07 00:10:00,24.9,14.3,0.00,South,187,2.3,-999.0,63,0.00,,,-99.99,,2013-04-07 08:10:00,
2013-04-07 00:15:00,24.9,14.4,0.00,South,188,0.8,-999.0,64,0.00,,,-99.99,,2013-04-07 08:15:00,
2013-04-07 00:20:00,24.7,14.5,0.00,SSW,196,2.5,-999.0,64,0.00,,,-99.99,,2013-04-07 08:20:00,
2013-04-07 00:25:00,24.8,14.5,0.00,South,180,1.7,-999.0,64,0.00,,,-99.99,,2013-04-07 08:25:00,
2013-04-07 00:30:00,24.7,14.9,0.00,South,185,1.9,-999.0,65,0.00,,,-99.99,,2013-04-07 08:30:00,
2013-04-07 00:35:00,24.4,14.8,0.00,South,179,2.0,-999.0,66,0.00,,,-99.99,,2013-04-07 08:35:00,
2013-04-07 00:40:00,24.2,14.5,0.00,South,174,3.5,-999.0,66,0.00,,,-99.99,,2013-04-07 08:40:00,
2013-04-07 00:45:00,24.2,14.5,0.00,SSE,163,2.1,-999.0,66,0.00,,,-99.99,,2013-04-07 08:45:00,
2013-04-07 00:52:00,23.9,14.4,0.00,SSE,164,1.8,-999.0,66,0.00,,,-99.99,,2013-04-07 08:52:00,
2013-04-07 00:57:00,25.0,14.2,0.00,NE,56,3.5,-999.0,63,0.00,,,-99.99,,2013-04-07 08:57:00,
2013-04-07 01:02:00,25.5,14.2,0.00,ENE,65,2.6,-999.0,61,0.00,,,-99.99,,2013-04-07 09:02:00,
2013-04-07 01:07:00,25.4,14.2,0.00,NE,56,4.7,-999.0,62,0.00,,,-99.99,,2013-04-07 09:07:00,
2013-04-07 01:12:00,25.1,14.1,0.00,ENE,60,3.6,-999.0,62,0.00,,,-99.99,,2013-04-07 09:12:00,
2013-04-07 01:17:00,25.1,14.2,0.00,NE,38,3.5,-999.0,62,0.00,,,-99.99,,2013-04-07 09:17:00,
2013-04-07 01:23:00,25.0,14.2,0.00,NE,46,4.1,-999.0,63,0.00,,,-99.99,,2013-04-07 09:23:00,
2013-04-07 01:29:00,25.0,13.7,0.00,NE,54,3.3,-999.0,61,0.00,,,-99.99,,2013-04-07 09:29:00,
2013-04-07 01:34:00,24.6,13.5,0.00,NE,50,4.5,-999.0,62,0.00,,,-99.99,,2013-04-07 09:34:00,
2013-04-07 01:39:00,25.1,14.0,0.00,NNE,28,2.3,-999.0,62,0.00,,,-99.99,,2013-04-07 09:39:00,
2013-04-07 01:44:00,25.1,14.6,0.00,NNE,33,4.0,-999.0,63,0.00,,,-99.99,,2013-04-07 09:44:00,
2013-04-07 01:49:00,25.1,14.9,0.00,NE,42,3.4,-999.0,64,0.00,,,-99.99,,2013-04-07 09:49:00,
2013-04-07 01:54:00,25.2,15.2,0.00,NE,46,2.9,-999.0,65,0.00,,,-99.99,,2013-04-07 09:54:00,
2013-04-07 02:00:00,25.1,15.9,0.00,NE,41,3.4,-999.0,67,0.00,,,-99.99,,2013-04-07 10:00:00,
2013-04-07 02:05:00,24.9,15.2,0.00,NNE,29,4.1,-999.0,65,0.00,,,-99.99,,2013-04-07 10:05:00,
2013-04-07 02:10:00,25.2,16.3,0.00,NE,42,3.8,-999.0,68,0.00,,,-99.99,,2013-04-07 10:10:00,
2013-04-07 02:17:00,24.9,14.6,0.00,NE,44,6.3,-999.0,64,0.00,,,-99.99,,2013-04-07 10:17:00,
2013-04-07 02:22:00,24.9,14.8,0.00,NE,46,4.9,-999.0,64,0.00,,,-99.99,,2013-04-07 10:22:00,
2013-04-07 02:27:00,25.0,14.8,0.00,NE,42,5.3,-999.0,64,0.00,,,-99.99,,2013-04-07 10:27:00,
2013-04-07 02:32:00,25.0,14.5,0.00,NE,38,5.6,-999.0,64,0.00,,,-99.99,,2013-04-07 10:32:00,
2013-04-07 02:37:00,25.0,13.5,0.00,NE,37,5.5,-999.0,60,0.00,,,-99.99,,2013-04-07 10:37:00,
2013-04-07 02:42:00,25.0,13.2,0.00,NE,45,6.1,-999.0,60,0.00,,,-99.99,,2013-04-07 10:42:00,
2013-04-07 02:47:00,24.6,11.4,0.00,NE,44,5.8,-999.0,56,0.00,,,-99.99,,2013-04-07 10:47:00,
2013-04-07 02:52:00,24.6,11.8,0.00,NE,47,6.4,-999.0,57,0.00,,,-99.99,,2013-04-07 10:52:00,
2013-04-07 02:57:00,24.7,11.4,0.00,NE,39,6.5,-999.0,56,0.00,,,-99.99,,2013-04-07 10:57:00,
2013-04-07 03:02:00,24.5,11.3,0.00,NE,41,5.4,-999.0,56,0.00,,,-99.99,,2013-04-07 11:02:00,
2013-04-07 03:07:00,24.6,11.6,0.00,NE,45,5.7,-999.0,57,0.00,,,-99.99,,2013-04-07 11:07:00,
2013-04-07 03:12:00,25.0,12.3,0.00,NE,45,4.0,-999.0,57,0.00,,,-99.99,,2013-04-07 11:12:00,
2013-04-07 03:17:00,25.0,13.8,0.00,NE,39,4.3,-999.0,61,0.00,,,-99.99,,2013-04-07 11:17:00,
2013-04-07 03:22:00,24.9,13.3,0.00,NE,40,3.7,-999.0,60,0.00,,,-99.99,,2013-04-07 11:22:00,
2013-04-07 03:28:00,24.9,13.9,0.00,NE,50,4.1,-999.0,62,0.00,,,-99.99,,2013-04-07 11:28:00,
2013-04-07 03:33:00,24.9,14.6,0.00,NNE,22,3.6,-999.0,64,0.00,,,-99.99,,2013-04-07 11:33:00,
2013-04-07 03:39:00,24.8,14.1,0.00,NE,39,4.6,-999.0,63,0.00,,,-99.99,,2013-04-07 11:39:00,
2013-04-07 03:44:00,24.6,13.1,0.00,NE,44,5.3,-999.0,60,0.00,,,-99.99,,2013-04-07 11:44:00,
2013-04-07 03:49:00,24.5,13.1,0.00,NE,39,5.3,-999.0,61,0.00,,,-99.99,,2013-04-07 11:49:00,
2013-04-07 03:54:00,24.5,12.1,0.00,NE,41,5.5,-999.0,58,0.00,,,-99.99,,2013-04-07 11:54:00,
2013-04-07 04:00:00,24.3,12.4,0.00,NE,38,5.7,-999.0,59,0.00,,,-99.99,,2013-04-07 12:00:00,
2013-04-07 04:05:00,24.4,12.7,0.00,NE,44,5.2,-999.0,60,0.00,,,-99.99,,2013-04-07 12:05:00,
2013-04-07 04:10:00,24.1,11.0,0.00,NE,40,6.9,-999.0,56,0.00,,,-99.99,,2013-04-07 12:10:00,
2013-04-07 04:15:00,24.1,11.1,0.00,NE,41,6.7,-999.0,57,0.00,,,-99.99,,2013-04-07 12:15:00,
2013-04-07 04:20:00,23.9,10.0,0.00,NE,42,7.8,-999.0,54,0.00,,,-99.99,,2013-04-07 12:20:00,
2013-04-07 04:25:00,23.6,9.3,0.00,NE,39,7.9,-999.0,53,0.00,,,-99.99,,2013-04-07 12:25:00,
2013-04-07 04:33:00,23.9,8.8,0.00,NE,44,8.2,-999.0,51,0.00,,,-99.99,,2013-04-07 12:33:00,
2013-04-07 04:39:00,23.8,7.0,0.00,NE,40,9.0,-999.0,48,0.00,,,-99.99,,2013-04-07 12:39:00,
2013-04-07 04:44:00,23.5,5.3,0.00,NE,44,10.4,-999.0,45,0.00,,,-99.99,,2013-04-07 12:44:00,
2013-04-07 04:49:00,23.6,4.1,0.00,NE,44,7.8,-999.0,42,0.00,,,-99.99,,2013-04-07 12:49:00,
2013-04-07 04:54:00,23.5,3.9,0.00,NE,47,7.3,-999.0,42,0.00,,,-99.99,,2013-04-07 12:54:00,
2013-04-07 04:59:00,23.2,3.8,0.00,NE,43,11.6,-999.0,42,0.00,,,-99.99,,2013-04-07 12:59:00,
2013-04-07 05:06:00,23.3,2.8,0.00,NE,43,8.9,-999.0,40,0.00,,,-99.99,,2013-04-07 13:06:00,
2013-04-07 05:11:00,23.4,0.1,0.00,NE,42,9.6,-999.0,35,0.00,,,-99.99,,2013-04-07 13:11:00,
2013-04-07 05:16:00,23.2,0.3,0.00,NE,43,11.2,-999.0,36,0.00,,,-99.99,,2013-04-07 13:16:00,
2013-04-07 05:22:00,23.1,-0.2,0.00,NE,40,11.0,-999.0,35,0.00,,,-99.99,,2013-04-07 13:22:00,
2013-04-07 05:27:00,22.8,-0.7,0.00,NE,39,8.7,-999.0,35,0.00,,,-99.99,,2013-04-07 13:27:00,
2013-04-07 05:32:00,22.5,-1.5,0.00,NE,38,10.1,-999.0,34,0.00,,,-99.99,,2013-04-07 13:32:00,
2013-04-07 05:37:00,22.5,-0.9,0.00,NE,41,9.8,-999.0,35,0.00,,,-99.99,,2013-04-07 13:37:00,
2013-04-07 05:42:00,22.9,0.2,0.00,NE,42,9.4,-999.0,36,0.00,,,-99.99,,2013-04-07 13:42:00,
2013-04-07 05:47:00,22.7,-2.8,0.00,NE,51,8.6,-999.0,31,0.00,,,-99.99,,2013-04-07 13:47:00,
2013-04-07 05:52:00,22.8,-2.5,0.00,NE,43,10.7,-999.0,32,0.00,,,-99.99,,2013-04-07 13:52:00,
2013-04-07 05:57:00,23.0,-2.4,0.00,NE,38,8.3,-999.0,32,0.00,,,-99.99,,2013-04-07 13:57:00,
2013-04-07 06:02:00,22.8,-2.6,0.00,NE,54,6.6,-999.0,32,0.00,,,-99.99,,2013-04-07 14:02:00,
2013-04-07 06:07:00,22.1,-2.5,0.00,ENE,66,4.7,-999.0,33,0.00,,,-99.99,,2013-04-07 14:07:00,
2013-04-07 06:12:00,22.0,-2.1,0.00,ENE,65,5.3,-999.0,34,0.00,,,-99.99,,2013-04-07 14:12:00,
2013-04-07 06:17:00,21.8,-1.8,0.00,ENE,58,3.5,-999.0,34,0.00,,,-99.99,,2013-04-07 14:17:00,
2013-04-07 06:24:00,21.7,-1.7,0.00,ENE,58,4.2,-999.0,35,0.00,,,-99.99,,2013-04-07 14:24:00,
2013-04-07 06:29:00,22.5,-3.1,0.00,NE,44,5.5,-999.0,31,0.00,,,-99.99,,2013-04-07 14:29:00,
2013-04-07 06:35:00,22.4,-2.9,0.00,NE,54,6.5,-999.0,32,0.00,,,-99.99,,2013-04-07 14:35:00,
2013-04-07 06:40:00,22.7,-3.1,0.00,NE,38,9.8,-999.0,31,0.00,,,-99.99,,2013-04-07 14:40:00,
2013-04-07 06:45:00,22.4,-3.2,0.00,NE,43,11.7,-999.0,31,0.00,,,-99.99,,2013-04-07 14:45:00,
2013-04-07 06:50:00,21.8,-2.1,0.00,NE,48,10.1,-999.0,34,0.00,,,-99.99,,2013-04-07 14:50:00,
2013-04-07 06:56:00,22.0,-2.8,0.00,NE,44,10.6,-999.0,32,0.00,,,-99.99,,2013-04-07 14:56:00,
2013-04-07 07:01:00,21.6,-2.4,0.00,ENE,75,5.0,-999.0,34,0.00,,,-99.99,,2013-04-07 15:01:00,
2013-04-07 07:06:00,21.5,-2.5,0.00,NE,38,9.4,-999.0,34,0.00,,,-99.99,,2013-04-07 15:06:00,
2013-04-07 07:12:00,21.2,-0.1,0.00,NE,40,10.6,-999.0,38,0.00,,,-99.99,,2013-04-07 15:12:00,
2013-04-07 07:18:00,21.0,-0.7,0.00,NE,40,10.4,-999.0,37,0.00,,,-99.99,,2013-04-07 15:18:00,
2013-04-07 07:24:00,20.9,-0.3,0.00,NE,45,9.2,-999.0,38,0.00,,,-99.99,,2013-04-07 15:24:00,
2013-04-07 07:29:00,21.1,0.2,0.00,NE,51,8.7,-999.0,39,0.00,,,-99.99,,2013-04-07 15:29:00,
2013-04-07 07:34:00,20.5,0.8,0.00,NE,48,8.8,-999.0,41,0.00,,,-99.99,,2013-04-07 15:34:00,
2013-04-07 07:39:00,20.2,1.4,0.00,NE,43,11.3,-999.0,43,0.00,,,-99.99,,2013-04-07 15:39:00,
2013-04-07 07:44:00,20.0,1.7,0.00,NE,54,6.6,-999.0,44,0.00,,,-99.99,,2013-04-07 15:44:00,
2013-04-07 07:51:00,20.4,0.1,0.00,East,80,7.4,-999.0,40,0.00,,,-99.99,,2013-04-07 15:51:00,
2013-04-07 07:56:00,20.7,1.5,0.00,ENE,57,6.3,-999.0,42,0.00,,,-99.99,,2013-04-07 15:56:00,
2013-04-07 08:01:00,20.2,0.5,0.00,NE,42,9.9,-999.0,41,0.00,,,-99.99,,2013-04-07 16:01:00,
2013-04-07 08:07:00,20.2,1.5,0.00,NE,49,11.7,-999.0,43,0.00,,,-99.99,,2013-04-07 16:07:00,
2013-04-07 08:14:00,20.4,0.4,0.00,NE,44,10.0,-999.0,40,0.00,,,-99.99,,2013-04-07 16:14:00,
2013-04-07 08:19:00,20.2,1.4,0.00,NE,48,10.0,-999.0,43,0.00,,,-99.99,,2013-04-07 16:19:00,
2013-04-07 08:25:00,20.2,-0.7,0.00,NE,54,9.9,-999.0,39,0.00,,,-99.99,,2013-04-07 16:25:00,
2013-04-07 08:31:00,20.3,0.1,0.00,NE,46,9.7,-999.0,40,0.00,,,-99.99,,2013-04-07 16:31:00,
2013-04-07 08:36:00,20.7,-0.1,0.00,ENE,61,9.9,-999.0,39,0.00,,,-99.99,,2013-04-07 16:36:00,
2013-04-07 08:41:00,20.7,0.3,0.00,ENE,59,9.1,-999.0,40,0.00,,,-99.99,,2013-04-07 16:41:00,
2013-04-07 08:46:00,20.4,1.2,0.00,ENE,68,6.7,-999.0,42,0.00,,,-99.99,,2013-04-07 16:46:00,
2013-04-07 08:52:00,20.9,-0.8,0.00,ENE,75,4.8,-999.0,37,0.00,,,-99.99,,2013-04-07 16:52:00,
2013-04-07 08:57:00,20.4,-0.9,0.00,NE,45,11.8,-999.0,38,0.00,,,-99.99,,2013-04-07 16:57:00,
2013-04-07 09:02:00,20.2,-0.5,0.00,NE,46,12.3,-999.0,39,0.00,,,-99.99,,2013-04-07 17:02:00,
2013-04-07 09:07:00,20.5,-0.2,0.00,NE,48,11.9,-999.0,39,0.00,,,-99.99,,2013-04-07 17:07:00,
2013-04-07 09:12:00,20.1,1.1,0.00,NE,46,14.6,-999.0,42,0.00,,,-99.99,,2013-04-07 17:12:00,
2013-04-07 09:18:00,19.6,2.0,0.00,NE,48,13.1,-999.0,45,0.00,,,-99.99,,2013-04-07 17:18:00,
2013-04-07 09:24:00,20.5,-0.3,0.00,NE,46,10.8,-999.0,39,0.00,,,-99.99,,2013-04-07 17:24:00,
2013-04-07 09:29:00,20.2,-0.3,0.00,NE,50,14.3,-999.0,39,0.00,,,-99.99,,2013-04-07 17:29:00,
2013-04-07 09:34:00,20.2,0.9,0.00,NE,50,15.5,-999.0,42,0.00,,,-99.99,,2013-04-07 17:34:00,
2013-04-07 09:39:00,20.1,-0.1,0.00,NE,45,12.1,-999.0,40,0.00,,,-99.99,,2013-04-07 17:39:00,
2013-04-07 09:45:00,20.4,0.3,0.00,NE,43,12.9,-999.0,40,0.00,,,-99.99,,2013-04-07 17:45:00,
2013-04-07 09:51:00,20.2,1.0,0.00,NE,43,12.0,-999.0,42,0.00,,,-99.99,,2013-04-07 17:51:00,
2013-04-07 09:56:00,20.5,0.3,0.00,NE,41,11.8,-999.0,40,0.00,,,-99.99,,2013-04-07 17:56:00,
2013-04-07 10:02:00,20.4,1.5,0.00,NE,41,13.8,-999.0,43,0.00,,,-99.99,,2013-04-07 18:02:00,
2013-04-07 10:07:00,20.5,1.1,0.00,NE,48,13.2,-999.0,42,0.00,,,-99.99,,2013-04-07 18:07:00,
2013-04-07 10:13:00,20.4,1.4,0.00,NE,44,11.9,-999.0,42,0.00,,,-99.99,,2013-04-07 18:13:00,
2013-04-07 10:20:00,20.4,2.7,0.00,ENE,59,12.1,-999.0,45,0.00,,,-99.99,,2013-04-07 18:20:00,
2013-04-07 10:25:00,20.4,1.6,0.00,NE,51,11.1,-999.0,43,0.00,,,-99.99,,2013-04-07 18:25:00,
2013-04-07 10:31:00,20.0,0.9,0.00,NE,51,14.2,-999.0,42,0.00,,,-99.99,,2013-04-07 18:31:00,
2013-04-07 10:36:00,20.3,3.1,0.00,ENE,68,12.2,-999.0,46,0.00,,,-99.99,,2013-04-07 18:36:00,
2013-04-07 10:42:00,20.1,2.0,0.00,ENE,58,13.6,-999.0,44,0.00,,,-99.99,,2013-04-07 18:42:00,
2013-04-07 10:47:00,20.5,2.8,0.00,ENE,61,11.8,-999.0,45,0.00,,,-99.99,,2013-04-07 18:47:00,
2013-04-07 10:54:00,21.0,3.8,0.00,East,81,9.1,-999.0,46,0.00,,,-99.99,,2013-04-07 18:54:00,
2013-04-07 10:59:00,21.9,5.2,0.00,East,88,5.7,-999.0,47,0.00,,,-99.99,,2013-04-07 18:59:00,
2013-04-07 11:04:00,21.6,5.2,0.00,ESE,122,6.2,-999.0,48,0.00,,,-99.99,,2013-04-07 19:04:00,
2013-04-07 11:09:00,21.7,5.0,0.00,ESE,119,5.8,-999.0,48,0.00,,,-99.99,,2013-04-07 19:09:00,
2013-04-07 11:14:00,21.4,4.8,0.00,ESE,106,7.0,-999.0,48,0.00,,,-99.99,,2013-04-07 19:14:00,
2013-04-07 11:19:00,20.4,3.9,0.00,NE,52,11.4,-999.0,48,0.00,,,-99.99,,2013-04-07 19:19:00,
2013-04-07 11:24:00,19.8,5.2,0.00,ESE,120,6.4,-999.0,52,0.00,,,-99.99,,2013-04-07 19:24:00,
2013-04-07 11:30:00,20.1,4.4,0.00,SE,129,5.9,-999.0,50,0.00,,,-99.99,,2013-04-07 19:30:00,
2013-04-07 11:35:00,20.5,3.9,0.00,East,94,5.4,-999.0,47,0.00,,,-99.99,,2013-04-07 19:35:00,
2013-04-07 11:42:00,20.3,3.8,0.00,ENE,76,9.1,-999.0,48,0.00,,,-99.99,,2013-04-07 19:42:00,
2013-04-07 11:49:00,20.8,4.5,0.00,NE,53,7.5,-999.0,48,0.00,,,-99.99,,2013-04-07 19:49:00,
2013-04-07 11:54:00,20.9,5.2,0.00,East,84,10.6,-999.0,50,0.00,,,-99.99,,2013-04-07 19:54:00,
2013-04-07 11:59:00,20.5,6.1,0.00,SE,129,8.1,-999.0,53,0.00,,,-99.99,,2013-04-07 19:59:00,
2013-04-07 12:04:00,20.2,6.4,0.00,ESE,123,7.4,-999.0,54,0.00,,,-99.99,,2013-04-07 20:04:00,
2013-04-07 12:09:00,20.1,6.4,0.00,ESE,119,8.4,-999.0,54,0.00,,,-99.99,,2013-04-07 20:09:00,
2013-04-07 12:15:00,20.3,5.9,0.00,East,81,8.3,-999.0,53,0.00,,,-99.99,,2013-04-07 20:15:00,
2013-04-07 12:20:00,19.9,4.4,0.00,East,83,10.7,-999.0,50,0.00,,,-99.99,,2013-04-07 20:20:00,
2013-04-07 12:26:00,20.4,4.7,0.00,ENE,69,7.7,-999.0,50,0.00,,,-99.99,,2013-04-07 20:26:00,
2013-04-07 12:32:00,20.9,6.6,0.00,ESE,103,6.8,-999.0,53,0.00,,,-99.99,,2013-04-07 20:32:00,
2013-04-07 12:37:00,20.8,6.1,0.00,SE,126,6.1,-999.0,52,0.00,,,-99.99,,2013-04-07 20:37:00,
2013-04-07 12:43:00,20.9,6.2,0.00,ESE,106,7.9,-999.0,52,0.00,,,-99.99,,2013-04-07 20:43:00,
2013-04-07 12:49:00,20.9,7.0,0.00,ESE,104,6.3,-999.0,54,0.00,,,-99.99,,2013-04-07 20:49:00,
2013-04-07 12:54:00,20.9,8.4,0.00,SE,138,6.4,-999.0,57,0.00,,,-99.99,,2013-04-07 20:54:00,
2013-04-07 13:00:00,20.3,10.2,0.00,ESE,113,8.3,-999.0,64,0.00,,,-99.99,,2013-04-07 21:00:00,
2013-04-07 13:05:00,19.9,9.9,0.00,ESE,119,8.9,-999.0,64,0.00,,,-99.99,,2013-04-07 21:05:00,
2013-04-07 13:11:00,20.5,10.4,0.00,East,95,6.5,-999.0,64,0.00,,,-99.99,,2013-04-07 21:11:00,
2013-04-07 13:16:00,20.7,9.3,0.00,East,94,5.8,-999.0,60,0.00,,,-99.99,,2013-04-07 21:16:00,
2013-04-07 13:22:00,21.5,9.2,0.00,ENE,74,5.7,-999.0,58,0.00,,,-99.99,,2013-04-07 21:22:00,
2013-04-07 13:27:00,23.1,9.9,0.00,ENE,62,1.1,-999.0,56,0.00,,,-99.99,,2013-04-07 21:27:00,
2013-04-07 13:32:00,23.1,7.8,0.00,East,85,2.6,-999.0,51,0.00,,,-99.99,,2013-04-07 21:32:00,
2013-04-07 13:37:00,23.1,9.5,0.00,ENE,57,6.4,-999.0,55,0.00,,,-99.99,,2013-04-07 21:37:00,
2013-04-07 13:42:00,22.7,9.4,0.00,ESE,112,5.0,-999.0,56,0.00,,,-99.99,,2013-04-07 21:42:00,
2013-04-07 13:49:00,22.7,10.4,0.00,ESE,110,2.6,-999.0,58,0.00,,,-99.99,,2013-04-07 21:49:00,
2013-04-07 13:54:00,23.3,9.0,0.00,ESE,115,3.4,-999.0,53,0.00,,,-99.99,,2013-04-07 21:54:00,
2013-04-07 13:59:00,23.8,10.5,0.00,ENE,74,4.8,-999.0,56,0.00,,,-99.99,,2013-04-07 21:59:00,
2013-04-07 14:04:00,22.7,11.6,0.00,SE,135,5.1,-999.0,62,0.00,,,-99.99,,2013-04-07 22:04:00,
2013-04-07 14:10:00,22.4,11.6,0.00,SE,141,6.3,-999.0,62,0.00,,,-99.99,,2013-04-07 22:10:00,
2013-04-07 14:15:00,22.9,11.2,0.00,SE,146,4.3,-999.0,60,0.00,,,-99.99,,2013-04-07 22:15:00,
2013-04-07 14:20:00,22.1,9.8,0.00,SE,137,5.0,-999.0,58,0.00,,,-99.99,,2013-04-07 22:20:00,
2013-04-07 14:25:00,21.8,9.5,0.00,SE,136,7.2,-999.0,58,0.00,,,-99.99,,2013-04-07 22:25:00,
2013-04-07 14:30:00,21.5,9.9,0.00,SE,146,5.9,-999.0,60,0.00,,,-99.99,,2013-04-07 22:30:00,
2013-04-07 14:35:00,23.7,11.0,0.00,East,101,6.2,-999.0,57,0.00,,,-99.99,,2013-04-07 22:35:00,
2013-04-07 14:40:00,21.3,10.1,0.00,South,179,8.1,-999.0,61,0.00,,,-99.99,,2013-04-07 22:40:00,
2013-04-07 14:45:00,22.1,10.4,0.00,SSE,166,9.9,-999.0,60,0.00,,,-99.99,,2013-04-07 22:45:00,
2013-04-07 14:50:00,22.3,9.7,0.00,SSE,148,10.0,-999.0,57,0.00,,,-99.99,,2013-04-07 22:50:00,
2013-04-07 14:55:00,22.3,9.8,0.00,SE,142,6.4,-999.0,58,0.00,,,-99.99,,2013-04-07 22:55:00,
2013-04-07 15:01:00,22.1,9.3,0.00,ENE,66,8.0,-999.0,57,0.00,,,-99.99,,2013-04-07 23:01:00,
2013-04-07 15:07:00,22.7,11.1,0.00,SE,133,3.8,-999.0,60,0.00,,,-99.99,,2013-04-07 23:07:00,
2013-04-07 15:12:00,22.7,10.4,0.00,South,184,8.7,-999.0,58,0.00,,,-99.99,,2013-04-07 23:12:00,
2013-04-07 15:18:00,22.1,10.2,0.00,South,171,3.8,-999.0,59,0.00,,,-99.99,,2013-04-07 23:18:00,
2013-04-07 15:24:00,21.3,9.3,0.00,SSE,164,6.1,-999.0,59,0.00,,,-99.99,,2013-04-07 23:24:00,
2013-04-07 15:29:00,21.5,10.3,0.00,ESE,114,5.4,-999.0,61,0.00,,,-99.99,,2013-04-07 23:29:00,
2013-04-07 15:35:00,21.8,9.5,0.00,SE,133,3.3,-999.0,58,0.00,,,-99.99,,2013-04-07 23:35:00,
2013-04-07 15:40:00,23.1,10.8,0.00,ESE,107,3.2,-999.0,58,0.00,,,-99.99,,2013-04-07 23:40:00,
2013-04-07 15:45:00,23.8,10.6,0.00,NE,51,4.1,-999.0,56,0.00,,,-99.99,,2013-04-07 23:45:00,
2013-04-07 15:50:00,23.9,10.4,0.00,South,170,3.5,-999.0,55,0.00,,,-99.99,,2013-04-07 23:50:00,
2013-04-07 15:55:00,23.6,9.5,0.00,East,86,3.6,-999.0,54,0.00,,,-99.99,,2013-04-07 23:55:00,
2013-04-07 16:00:00,23.3,9.7,0.00,SE,127,2.0,-999.0,55,0.00,,,-99.99,,2013-04-08 00:00:00,
2013-04-07 16:06:00,22.7,9.4,0.00,ESE,112,5.7,-999.0,56,0.00,,,-99.99,,2013-04-08 00:06:00,
2013-04-07 16:11:00,22.4,9.8,0.00,East,96,3.2,-999.0,57,0.00,,,-99.99,,2013-04-08 00:11:00,
2013-04-07 16:17:00,22.9,10.8,0.00,ESE,119,4.5,-999.0,59,0.00,,,-99.99,,2013-04-08 00:17:00,
2013-04-07 16:22:00,22.7,9.2,0.00,SE,145,4.5,-999.0,55,0.00,,,-99.99,,2013-04-08 00:22:00,
2013-04-07 16:29:00,22.7,8.8,0.00,South,174,6.7,-999.0,54,0.00,,,-99.99,,2013-04-08 00:29:00,
2013-04-07 16:34:00,22.7,8.5,0.00,South,180,2.7,-999.0,54,0.00,,,-99.99,,2013-04-08 00:34:00,
2013-04-07 16:40:00,23.6,9.6,0.00,East,81,3.3,-999.0,54,0.00,,,-99.99,,2013-04-08 00:40:00,
2013-04-07 16:45:00,23.1,9.6,0.00,ESE,119,4.9,-999.0,55,0.00,,,-99.99,,2013-04-08 00:45:00,
2013-04-07 16:50:00,23.0,9.2,0.00,ENE,59,6.4,-999.0,54,0.00,,,-99.99,,2013-04-08 00:50:00,
2013-04-07 16:55:00,21.9,9.2,0.00,SSE,147,3.7,-999.0,57,0.00,,,-99.99,,2013-04-08 00:55:00,
2013-04-07 17:01:00,23.3,9.0,0.00,SSE,154,1.2,-999.0,53,0.00,,,-99.99,,2013-04-08 01:01:00,
2013-04-07 17:06:00,22.8,9.1,0.00,ENE,75,6.3,-999.0,55,0.00,,,-99.99,,2013-04-08 01:06:00,
2013-04-07 17:11:00,21.8,8.8,0.00,ENE,69,3.4,-999.0,56,0.00,,,-99.99,,2013-04-08 01:11:00,
2013-04-07 17:16:00,22.1,8.8,0.00,SE,126,3.0,-999.0,55,0.00,,,-99.99,,2013-04-08 01:16:00,
2013-04-07 17:21:00,22.6,10.0,0.00,ENE,67,4.8,-999.0,57,0.00,,,-99.99,,2013-04-08 01:21:00,
2013-04-07 17:27:00,22.7,9.3,0.00,SSE,147,1.6,-999.0,55,0.00,,,-99.99,,2013-04-08 01:27:00,
2013-04-07 17:32:00,22.2,8.9,0.00,SE,142,1.6,-999.0,56,0.00,,,-99.99,,2013-04-08 01:32:00,
2013-04-07 17:38:00,22.9,8.7,0.00,ESE,123,5.2,-999.0,54,0.00,,,-99.99,,2013-04-08 01:38:00,
2013-04-07 17:43:00,22.1,9.4,0.00,SE,143,3.2,-999.0,57,0.00,,,-99.99,,2013-04-08 01:43:00,
2013-04-07 17:49:00,21.8,9.1,0.00,SSE,161,7.1,-999.0,57,0.00,,,-99.99,,2013-04-08 01:49:00,
2013-04-07 17:54:00,21.2,9.3,0.00,SSW,195,11.8,-999.0,59,0.00,,,-99.99,,2013-04-08 01:54:00,
2013-04-07 17:59:00,21.7,8.8,0.00,SSE,164,0.8,-999.0,57,0.00,,,-99.99,,2013-04-08 01:59:00,
2013-04-07 18:05:00,22.1,13.9,0.00,SSW,193,2.0,-999.0,70,0.00,,,-99.99,,2013-04-08 02:05:00,
2013-04-07 18:10:00,21.4,15.2,0.00,South,191,12.2,-999.0,76,0.00,,,-99.99,,2013-04-08 02:10:00,
2013-04-07 18:15:00,20.4,16.7,0.00,WSW,239,5.5,-999.0,85,0.00,,,-99.99,,2013-04-08 02:15:00,
2013-04-07 18:20:00,21.0,16.8,0.00,SSW,208,8.2,-999.0,83,0.00,,,-99.99,,2013-04-08 02:20:00,
2013-04-07 18:25:00,20.3,15.7,0.00,SW,216,5.9,-999.0,82,0.00,,,-99.99,,2013-04-08 02:25:00,
2013-04-07 18:30:00,19.8,15.3,0.00,South,189,5.3,-999.0,82,0.00,,,-99.99,,2013-04-08 02:30:00,
2013-04-07 18:35:00,19.9,15.0,0.00,SSW,201,7.3,-999.0,81,0.00,,,-99.99,,2013-04-08 02:35:00,
2013-04-07 18:40:00,20.0,14.2,0.00,South,171,9.7,-999.0,77,0.00,,,-99.99,,2013-04-08 02:40:00,
2013-04-07 18:47:00,19.5,14.7,0.00,SSW,203,12.1,-999.0,81,0.00,,,-99.99,,2013-04-08 02:47:00,
2013-04-07 18:52:00,19.6,15.5,0.00,South,171,8.3,-999.0,83,0.00,,,-99.99,,2013-04-08 02:52:00,
2013-04-07 18:59:00,19.6,15.4,0.00,South,174,6.8,-999.0,83,0.00,,,-99.99,,2013-04-08 02:59:00,
2013-04-07 19:05:00,19.4,14.8,0.00,South,178,8.0,-999.0,82,0.00,,,-99.99,,2013-04-08 03:05:00,
2013-04-07 19:11:00,19.2,15.5,0.00,SSW,195,9.0,-999.0,85,0.00,,,-99.99,,2013-04-08 03:11:00,
2013-04-07 19:17:00,19.1,16.0,0.00,SSW,207,10.9,-999.0,87,0.00,,,-99.99,,2013-04-08 03:17:00,
2013-04-07 19:22:00,19.1,16.4,0.00,SW,215,11.8,-999.0,89,0.00,,,-99.99,,2013-04-08 03:22:00,
2013-04-07 19:28:00,19.1,16.8,0.00,SSW,204,6.8,-999.0,90,0.00,,,-99.99,,2013-04-08 03:28:00,
2013-04-07 19:34:00,19.1,16.7,0.00,SW,214,8.5,-999.0,90,0.00,,,-99.99,,2013-04-08 03:34:00,
2013-04-07 19:40:00,19.1,16.3,0.00,South,171,7.5,-999.0,88,0.00,,,-99.99,,2013-04-08 03:40:00,
2013-04-07 19:45:00,18.8,16.0,0.00,South,183,8.0,-999.0,88,0.00,,,-99.99,,2013-04-08 03:45:00,
2013-04-07 19:50:00,18.7,15.4,0.00,South,173,6.0,-999.0,87,0.00,,,-99.99,,2013-04-08 03:50:00,
2013-04-07 19:56:00,18.8,15.0,0.00,SSW,193,9.7,-999.0,84,0.00,,,-99.99,,2013-04-08 03:56:00,
2013-04-07 20:01:00,18.7,14.4,0.00,SSE,167,6.6,-999.0,82,0.00,,,-99.99,,2013-04-08 04:01:00,
2013-04-07 20:04:00,18.9,14.7,0.00,South,177,6.8,-999.0,83,0.00,,,-99.99,,2013-04-08 04:04:00,
2013-04-07 20:06:00,18.9,14.6,0.00,South,185,8.5,-999.0,83,0.00,,,-99.99,,2013-04-08 04:06:00,
2013-04-07 20:09:00,18.9,14.5,0.00,South,187,10.4,-999.0,83,0.00,,,-99.99,,2013-04-08 04:09:00,
2013-04-07 20:14:00,18.9,14.4,0.00,South,178,5.2,-999.0,82,0.00,,,-99.99,,2013-04-08 04:14:00,
2013-04-07 20:19:00,19.0,14.3,0.00,South,171,6.9,-999.0,81,0.00,,,-99.99,,2013-04-08 04:19:00,
2013-04-07 20:24:00,19.1,13.9,0.00,SE,138,4.6,-999.0,79,0.00,,,-99.99,,2013-04-08 04:24:00,
2013-04-07 20:29:00,19.0,14.5,0.00,SSE,167,6.4,-999.0,82,0.00,,,-99.99,,2013-04-08 04:29:00,
2013-04-07 20:34:00,18.8,13.9,0.00,SSE,157,4.9,-999.0,81,0.00,,,-99.99,,2013-04-08 04:34:00,
2013-04-07 20:40:00,18.8,14.0,0.00,South,177,8.4,-999.0,81,0.00,,,-99.99,,2013-04-08 04:40:00,
2013-04-07 20:45:00,19.0,14.5,0.00,South,169,9.1,-999.0,82,0.00,,,-99.99,,2013-04-08 04:45:00,
2013-04-07 20:50:00,18.9,14.6,0.00,SSE,165,7.0,-999.0,83,0.00,,,-99.99,,2013-04-08 04:50:00,
2013-04-07 20:56:00,18.4,14.3,0.00,SSE,149,5.7,-999.0,83,0.00,,,-99.99,,2013-04-08 04:56:00,
2013-04-07 21:01:00,18.3,14.4,0.00,SSE,164,4.9,-999.0,84,0.00,,,-99.99,,2013-04-08 05:01:00,
2013-04-07 21:07:00,18.2,14.2,0.00,SSE,164,4.6,-999.0,84,0.00,,,-99.99,,2013-04-08 05:07:00,
2013-04-07 21:12:00,18.2,14.1,0.00,South,173,4.7,-999.0,83,0.00,,,-99.99,,2013-04-08 05:12:00,
2013-04-07 21:17:00,18.2,13.8,0.00,SSE,158,6.3,-999.0,82,0.00,,,-99.99,,2013-04-08 05:17:00,
2013-04-07 21:22:00,18.2,13.7,0.00,SSE,148,5.4,-999.0,82,0.00,,,-99.99,,2013-04-08 05:22:00,
2013-04-07 21:27:00,18.1,13.3,0.00,SE,141,4.8,-999.0,81,0.00,,,-99.99,,2013-04-08 05:27:00,
2013-04-07 21:32:00,18.1,13.0,0.00,SE,140,4.7,-999.0,80,0.00,,,-99.99,,2013-04-08 05:32:00,
2013-04-07 21:37:00,18.0,13.4,0.00,SE,134,5.4,-999.0,82,0.00,,,-99.99,,2013-04-08 05:37:00,
2013-04-07 21:42:00,17.8,13.2,0.00,SE,124,6.7,-999.0,81,0.00,,,-99.99,,2013-04-08 05:42:00,
2013-04-07 21:47:00,17.8,13.4,0.00,SE,124,5.0,-999.0,82,0.00,,,-99.99,,2013-04-08 05:47:00,
2013-04-07 21:52:00,17.7,13.8,0.00,ESE,123,4.4,-999.0,84,0.00,,,-99.99,,2013-04-08 05:52:00,
2013-04-07 21:57:00,18.0,13.4,0.00,SSE,154,7.4,-999.0,82,0.00,,,-99.99,,2013-04-08 05:57:00,
2013-04-07 22:02:00,17.9,13.2,0.00,SE,133,6.5,-999.0,81,0.00,,,-99.99,,2013-04-08 06:02:00,
2013-04-07 22:07:00,18.0,13.5,0.00,SSE,156,8.4,-999.0,82,0.00,,,-99.99,,2013-04-08 06:07:00,
2013-04-07 22:12:00,18.0,13.7,0.00,SSE,155,6.7,-999.0,83,0.00,,,-99.99,,2013-04-08 06:12:00,
2013-04-07 22:17:00,17.8,13.8,0.00,SE,146,6.0,-999.0,83,0.00,,,-99.99,,2013-04-08 06:17:00,
2013-04-07 22:22:00,17.8,13.7,0.00,ESE,123,6.8,-999.0,83,0.00,,,-99.99,,2013-04-08 06:22:00,
2013-04-07 22:27:00,18.0,13.7,0.00,SSE,167,5.5,-999.0,83,0.00,,,-99.99,,2013-04-08 06:27:00,
2013-04-07 22:32:00,17.6,13.7,0.00,SE,137,3.9,-999.0,84,0.00,,,-99.99,,2013-04-08 06:32:00,
2013-04-07 22:37:00,17.5,13.3,0.00,ESE,114,6.8,-999.0,83,0.00,,,-99.99,,2013-04-08 06:37:00,
2013-04-07 22:42:00,17.4,12.8,0.00,SE,125,5.1,-999.0,81,0.00,,,-99.99,,2013-04-08 06:42:00,
2013-04-07 22:47:00,17.5,12.6,0.00,SE,124,6.4,-999.0,80,0.00,,,-99.99,,2013-04-08 06:47:00,
2013-04-07 22:52:00,17.5,11.9,0.00,ESE,111,6.0,-999.0,78,0.00,,,-99.99,,2013-04-08 06:52:00,
2013-04-07 22:57:00,17.3,12.0,0.00,SSE,159,4.8,-999.0,79,0.00,,,-99.99,,2013-04-08 06:57:00,
2013-04-07 23:02:00,17.3,11.6,0.00,SSE,148,8.8,-999.0,77,0.00,,,-99.99,,2013-04-08 07:02:00,
2013-04-07 23:07:00,17.2,11.2,0.00,SE,137,5.0,-999.0,77,0.00,,,-99.99,,2013-04-08 07:07:00,
2013-04-07 23:12:00,17.1,11.0,0.00,ESE,114,6.1,-999.0,76,0.00,,,-99.99,,2013-04-08 07:12:00,
2013-04-07 23:17:00,17.0,10.6,0.00,SE,139,7.3,-999.0,75,0.00,,,-99.99,,2013-04-08 07:17:00,
2013-04-07 23:23:00,16.9,10.2,0.00,SE,129,9.2,-999.0,74,0.00,,,-99.99,,2013-04-08 07:23:00,
2013-04-07 23:29:00,16.7,10.0,0.00,SSE,148,6.1,-999.0,74,0.00,,,-99.99,,2013-04-08 07:29:00,
2013-04-07 23:34:00,16.5,9.7,0.00,SE,144,8.8,-999.0,74,0.00,,,-99.99,,2013-04-08 07:34:00,
2013-04-07 23:39:00,16.5,9.7,0.00,SSE,160,8.1,-999.0,74,0.00,,,-99.99,,2013-04-08 07:39:00,
2013-04-07 23:45:00,16.3,9.5,0.00,SE,140,8.5,-999.0,74,0.00,,,-99.99,,2013-04-08 07:45:00,
2013-04-07 23:50:00,16.2,9.1,0.00,SE,132,7.6,-999.0,73,0.00,,,-99.99,,2013-04-08 07:50:00,
2013-04-07 23:55:00,16.1,9.2,0.00,SSE,156,8.6,-999.0,73,0.00,,,-99.99,,2013-04-08 07:55:00,